sensor_id;sensor_type;location;lat;lon;timestamp;P1;durP1;ratioP1;P2;durP2;ratioP2
54937;SDS011;52756;52.826;6.214;2022-11-15T00:00:19;22.42;;;15.95;;
54937;SDS011;52756;52.826;6.214;2022-11-15T00:02:44;23.55;;;17.58;;
54937;SDS011;52756;52.826;6.214;2022-11-15T00:05:10;24.00;;;16.92;;
54937;SDS011;52756;52.826;6.214;2022-11-15T00:07:36;24.85;;;17.52;;
54937;SDS011;52756;52.826;6.214;2022-11-15T00:10:02;26.58;;;18.80;;
54937;SDS011;52756;52.826;6.214;2022-11-15T00:12:28;24.77;;;16.90;;
54937;SDS011;52756;52.826;6.214;2022-11-15T00:14:54;23.48;;;18.25;;
54937;SDS011;52756;52.826;6.214;2022-11-15T00:17:20;28.13;;;19.15;;
54937;SDS011;52756;52.826;6.214;2022-11-15T00:19:46;29.25;;;21.20;;
54937;SDS011;52756;52.826;6.214;2022-11-15T00:22:11;25.88;;;19.20;;
54937;SDS011;52756;52.826;6.214;2022-11-15T00:24:37;26.40;;;20.10;;
54937;SDS011;52756;52.826;6.214;2022-11-15T00:27:02;28.10;;;20.50;;
54937;SDS011;52756;52.826;6.214;2022-11-15T00:29:28;27.15;;;20.17;;
54937;SDS011;52756;52.826;6.214;2022-11-15T00:31:54;30.58;;;21.98;;
54937;SDS011;52756;52.826;6.214;2022-11-15T00:34:19;29.55;;;21.42;;
54937;SDS011;52756;52.826;6.214;2022-11-15T00:36:45;27.23;;;20.00;;
54937;SDS011;52756;52.826;6.214;2022-11-15T00:39:11;28.80;;;19.95;;
54937;SDS011;52756;52.826;6.214;2022-11-15T00:41:36;24.85;;;20.25;;
54937;SDS011;52756;52.826;6.214;2022-11-15T00:44:02;27.17;;;20.50;;
54937;SDS011;52756;52.826;6.214;2022-11-15T00:46:28;28.38;;;20.42;;
54937;SDS011;52756;52.826;6.214;2022-11-15T00:48:53;27.42;;;19.70;;
54937;SDS011;52756;52.826;6.214;2022-11-15T00:51:19;29.75;;;20.05;;
54937;SDS011;52756;52.826;6.214;2022-11-15T00:53:45;26.90;;;19.88;;
54937;SDS011;52756;52.826;6.214;2022-11-15T00:56:10;28.75;;;20.80;;
54937;SDS011;52756;52.826;6.214;2022-11-15T00:58:36;27.45;;;19.55;;
54937;SDS011;52756;52.826;6.214;2022-11-15T01:01:12;28.05;;;19.75;;
54937;SDS011;52756;52.826;6.214;2022-11-15T01:03:39;26.33;;;19.70;;
54937;SDS011;52756;52.826;6.214;2022-11-15T01:06:07;26.38;;;19.55;;
54937;SDS011;52756;52.826;6.214;2022-11-15T01:08:33;27.35;;;19.20;;
54937;SDS011;52756;52.826;6.214;2022-11-15T01:11:03;26.17;;;17.63;;
54937;SDS011;52756;52.826;6.214;2022-11-15T01:13:32;28.40;;;18.83;;
54937;SDS011;52756;52.826;6.214;2022-11-15T01:15:59;26.92;;;18.52;;
54937;SDS011;52756;52.826;6.214;2022-11-15T01:18:37;24.95;;;17.63;;
54937;SDS011;52756;52.826;6.214;2022-11-15T01:21:21;25.90;;;18.80;;
54937;SDS011;52756;52.826;6.214;2022-11-15T01:23:46;27.35;;;17.88;;
54937;SDS011;52756;52.826;6.214;2022-11-15T01:26:13;23.77;;;17.40;;
54937;SDS011;52756;52.826;6.214;2022-11-15T01:28:41;25.65;;;17.83;;
54937;SDS011;52756;52.826;6.214;2022-11-15T01:31:17;23.83;;;17.40;;
54937;SDS011;52756;52.826;6.214;2022-11-15T01:33:44;27.70;;;18.80;;
54937;SDS011;52756;52.826;6.214;2022-11-15T01:36:11;25.95;;;18.65;;
54937;SDS011;52756;52.826;6.214;2022-11-15T01:38:38;25.33;;;17.17;;
54937;SDS011;52756;52.826;6.214;2022-11-15T01:41:04;28.27;;;18.65;;
54937;SDS011;52756;52.826;6.214;2022-11-15T01:43:34;25.30;;;17.70;;
54937;SDS011;52756;52.826;6.214;2022-11-15T01:48:57;28.13;;;18.95;;
54937;SDS011;52756;52.826;6.214;2022-11-15T01:51:26;28.17;;;19.23;;
54937;SDS011;52756;52.826;6.214;2022-11-15T01:53:55;27.58;;;19.05;;
54937;SDS011;52756;52.826;6.214;2022-11-15T01:56:28;28.33;;;19.75;;
54937;SDS011;52756;52.826;6.214;2022-11-15T01:58:56;27.20;;;18.95;;
54937;SDS011;52756;52.826;6.214;2022-11-15T02:01:25;31.33;;;21.35;;
54937;SDS011;52756;52.826;6.214;2022-11-15T02:03:57;29.98;;;19.95;;
54937;SDS011;52756;52.826;6.214;2022-11-15T02:06:26;28.13;;;19.15;;
54937;SDS011;52756;52.826;6.214;2022-11-15T02:08:51;26.00;;;18.27;;
54937;SDS011;52756;52.826;6.214;2022-11-15T02:11:18;27.60;;;19.55;;
54937;SDS011;52756;52.826;6.214;2022-11-15T02:13:44;27.50;;;19.55;;
54937;SDS011;52756;52.826;6.214;2022-11-15T02:21:35;29.60;;;19.30;;
54937;SDS011;52756;52.826;6.214;2022-11-15T02:30:22;29.05;;;19.08;;
54937;SDS011;52756;52.826;6.214;2022-11-15T02:43:30;32.63;;;20.55;;
54937;SDS011;52756;52.826;6.214;2022-11-15T02:49:09;37.72;;;20.92;;
54937;SDS011;52756;52.826;6.214;2022-11-15T02:51:37;41.22;;;22.60;;
54937;SDS011;52756;52.826;6.214;2022-11-15T02:54:03;43.72;;;24.48;;
54937;SDS011;52756;52.826;6.214;2022-11-15T02:56:29;40.35;;;22.83;;
54937;SDS011;52756;52.826;6.214;2022-11-15T02:59:05;43.83;;;24.30;;
54937;SDS011;52756;52.826;6.214;2022-11-15T03:10:16;38.38;;;22.05;;
54937;SDS011;52756;52.826;6.214;2022-11-15T03:12:46;39.15;;;21.77;;
54937;SDS011;52756;52.826;6.214;2022-11-15T03:15:27;44.05;;;23.08;;
54937;SDS011;52756;52.826;6.214;2022-11-15T03:20:28;35.85;;;22.70;;
54937;SDS011;52756;52.826;6.214;2022-11-15T03:22:56;45.58;;;25.73;;
54937;SDS011;52756;52.826;6.214;2022-11-15T03:25:28;46.38;;;24.40;;
54937;SDS011;52756;52.826;6.214;2022-11-15T03:27:57;43.65;;;24.15;;
54937;SDS011;52756;52.826;6.214;2022-11-15T03:30:27;44.50;;;24.17;;
54937;SDS011;52756;52.826;6.214;2022-11-15T03:32:56;51.70;;;25.50;;
54937;SDS011;52756;52.826;6.214;2022-11-15T03:35:24;42.17;;;23.30;;
54937;SDS011;52756;52.826;6.214;2022-11-15T03:41:14;42.42;;;23.35;;
54937;SDS011;52756;52.826;6.214;2022-11-15T03:43:44;42.70;;;24.17;;
54937;SDS011;52756;52.826;6.214;2022-11-15T03:46:30;42.20;;;23.45;;
54937;SDS011;52756;52.826;6.214;2022-11-15T03:49:14;48.90;;;24.65;;
54937;SDS011;52756;52.826;6.214;2022-11-15T03:51:44;45.97;;;25.90;;
54937;SDS011;52756;52.826;6.214;2022-11-15T03:54:11;43.97;;;24.92;;
54937;SDS011;52756;52.826;6.214;2022-11-15T03:56:37;52.15;;;26.73;;
54937;SDS011;52756;52.826;6.214;2022-11-15T03:59:03;49.03;;;25.48;;
54937;SDS011;52756;52.826;6.214;2022-11-15T04:01:28;45.45;;;23.95;;
54937;SDS011;52756;52.826;6.214;2022-11-15T04:03:54;50.92;;;25.80;;
54937;SDS011;52756;52.826;6.214;2022-11-15T04:06:20;47.72;;;25.92;;
54937;SDS011;52756;52.826;6.214;2022-11-15T04:08:45;50.90;;;27.85;;
54937;SDS011;52756;52.826;6.214;2022-11-15T04:11:11;46.60;;;26.10;;
54937;SDS011;52756;52.826;6.214;2022-11-15T04:13:37;48.90;;;26.75;;
54937;SDS011;52756;52.826;6.214;2022-11-15T04:16:02;46.38;;;26.13;;
54937;SDS011;52756;52.826;6.214;2022-11-15T04:18:28;52.30;;;28.15;;
54937;SDS011;52756;52.826;6.214;2022-11-15T04:20:54;60.20;;;29.02;;
54937;SDS011;52756;52.826;6.214;2022-11-15T04:23:38;53.65;;;29.08;;
54937;SDS011;52756;52.826;6.214;2022-11-15T04:26:22;62.13;;;29.33;;
54937;SDS011;52756;52.826;6.214;2022-11-15T04:28:48;56.28;;;28.98;;
54937;SDS011;52756;52.826;6.214;2022-11-15T04:31:32;63.53;;;31.77;;
54937;SDS011;52756;52.826;6.214;2022-11-15T04:33:58;66.15;;;32.90;;
54937;SDS011;52756;52.826;6.214;2022-11-15T04:36:24;74.50;;;33.10;;
54937;SDS011;52756;52.826;6.214;2022-11-15T04:39:08;71.47;;;32.60;;
54937;SDS011;52756;52.826;6.214;2022-11-15T04:41:34;73.38;;;33.33;;
54937;SDS011;52756;52.826;6.214;2022-11-15T04:44:00;67.53;;;32.47;;
54937;SDS011;52756;52.826;6.214;2022-11-15T04:46:26;71.65;;;33.65;;
54937;SDS011;52756;52.826;6.214;2022-11-15T04:48:52;76.32;;;34.63;;
54937;SDS011;52756;52.826;6.214;2022-11-15T04:51:18;71.05;;;35.20;;
54937;SDS011;52756;52.826;6.214;2022-11-15T04:53:44;67.07;;;33.85;;
54937;SDS011;52756;52.826;6.214;2022-11-15T04:56:10;71.75;;;33.17;;
54937;SDS011;52756;52.826;6.214;2022-11-15T04:58:36;69.38;;;34.90;;
54937;SDS011;52756;52.826;6.214;2022-11-15T05:01:11;77.10;;;35.33;;
54937;SDS011;52756;52.826;6.214;2022-11-15T05:03:42;72.25;;;35.17;;
54937;SDS011;52756;52.826;6.214;2022-11-15T05:06:27;77.30;;;35.50;;
54937;SDS011;52756;52.826;6.214;2022-11-15T05:08:53;78.03;;;36.42;;
54937;SDS011;52756;52.826;6.214;2022-11-15T05:11:20;75.72;;;36.15;;
54937;SDS011;52756;52.826;6.214;2022-11-15T05:13:46;77.38;;;37.55;;
54937;SDS011;52756;52.826;6.214;2022-11-15T05:16:12;77.82;;;36.60;;
54937;SDS011;52756;52.826;6.214;2022-11-15T05:18:38;73.00;;;35.55;;
54937;SDS011;52756;52.826;6.214;2022-11-15T05:21:07;74.40;;;36.88;;
54937;SDS011;52756;52.826;6.214;2022-11-15T05:23:38;76.45;;;36.47;;
54937;SDS011;52756;52.826;6.214;2022-11-15T05:26:04;68.63;;;35.05;;
54937;SDS011;52756;52.826;6.214;2022-11-15T05:28:31;70.35;;;35.22;;
54937;SDS011;52756;52.826;6.214;2022-11-15T05:31:01;67.28;;;34.45;;
54937;SDS011;52756;52.826;6.214;2022-11-15T05:33:27;69.78;;;35.10;;
54937;SDS011;52756;52.826;6.214;2022-11-15T05:35:59;68.22;;;35.03;;
54937;SDS011;52756;52.826;6.214;2022-11-15T05:38:45;69.40;;;35.63;;
54937;SDS011;52756;52.826;6.214;2022-11-15T05:41:13;63.42;;;34.00;;
54937;SDS011;52756;52.826;6.214;2022-11-15T05:43:39;68.78;;;34.20;;
54937;SDS011;52756;52.826;6.214;2022-11-15T05:46:06;66.22;;;35.17;;
54937;SDS011;52756;52.826;6.214;2022-11-15T05:48:33;63.33;;;33.05;;
54937;SDS011;52756;52.826;6.214;2022-11-15T05:51:01;68.72;;;35.45;;
54937;SDS011;52756;52.826;6.214;2022-11-15T05:53:29;69.90;;;36.17;;
54937;SDS011;52756;52.826;6.214;2022-11-15T05:55:55;66.47;;;33.83;;
54937;SDS011;52756;52.826;6.214;2022-11-15T05:58:21;73.05;;;35.50;;
54937;SDS011;52756;52.826;6.214;2022-11-15T06:00:47;68.75;;;37.13;;
54937;SDS011;52756;52.826;6.214;2022-11-15T06:03:13;64.53;;;34.28;;
54937;SDS011;52756;52.826;6.214;2022-11-15T06:05:39;72.72;;;35.80;;
54937;SDS011;52756;52.826;6.214;2022-11-15T06:08:05;63.15;;;33.08;;
54937;SDS011;52756;52.826;6.214;2022-11-15T06:10:32;68.00;;;34.17;;
54937;SDS011;52756;52.826;6.214;2022-11-15T06:12:58;62.58;;;32.53;;
54937;SDS011;52756;52.826;6.214;2022-11-15T06:15:24;63.50;;;33.58;;
54937;SDS011;52756;52.826;6.214;2022-11-15T06:17:50;65.70;;;34.20;;
54937;SDS011;52756;52.826;6.214;2022-11-15T06:20:16;68.97;;;35.05;;
54937;SDS011;52756;52.826;6.214;2022-11-15T06:22:42;63.65;;;32.70;;
54937;SDS011;52756;52.826;6.214;2022-11-15T06:25:08;64.57;;;34.55;;
54937;SDS011;52756;52.826;6.214;2022-11-15T06:27:34;57.55;;;32.22;;
54937;SDS011;52756;52.826;6.214;2022-11-15T06:29:59;63.17;;;33.85;;
54937;SDS011;52756;52.826;6.214;2022-11-15T06:32:25;64.35;;;32.40;;
54937;SDS011;52756;52.826;6.214;2022-11-15T06:34:51;61.28;;;33.72;;
54937;SDS011;52756;52.826;6.214;2022-11-15T06:37:16;58.38;;;31.88;;
54937;SDS011;52756;52.826;6.214;2022-11-15T06:39:42;57.95;;;30.23;;
54937;SDS011;52756;52.826;6.214;2022-11-15T06:42:08;58.08;;;33.15;;
54937;SDS011;52756;52.826;6.214;2022-11-15T06:44:34;57.78;;;32.15;;
54937;SDS011;52756;52.826;6.214;2022-11-15T06:46:59;49.10;;;29.67;;
54937;SDS011;52756;52.826;6.214;2022-11-15T06:49:25;61.33;;;31.52;;
54937;SDS011;52756;52.826;6.214;2022-11-15T06:51:51;54.47;;;31.20;;
54937;SDS011;52756;52.826;6.214;2022-11-15T06:54:16;53.95;;;32.15;;
54937;SDS011;52756;52.826;6.214;2022-11-15T06:56:42;54.08;;;30.48;;
54937;SDS011;52756;52.826;6.214;2022-11-15T06:59:08;51.70;;;30.52;;
54937;SDS011;52756;52.826;6.214;2022-11-15T07:01:33;54.75;;;30.30;;
54937;SDS011;52756;52.826;6.214;2022-11-15T07:03:59;51.50;;;30.83;;
54937;SDS011;52756;52.826;6.214;2022-11-15T07:06:25;49.08;;;30.27;;
54937;SDS011;52756;52.826;6.214;2022-11-15T07:08:50;52.78;;;29.63;;
54937;SDS011;52756;52.826;6.214;2022-11-15T07:11:16;47.55;;;30.83;;
54937;SDS011;52756;52.826;6.214;2022-11-15T07:13:41;47.58;;;29.10;;
54937;SDS011;52756;52.826;6.214;2022-11-15T07:16:08;51.22;;;29.85;;
54937;SDS011;52756;52.826;6.214;2022-11-15T07:18:35;47.75;;;30.10;;
54937;SDS011;52756;52.826;6.214;2022-11-15T07:21:06;51.38;;;30.63;;
54937;SDS011;52756;52.826;6.214;2022-11-15T07:23:33;48.67;;;28.63;;
54937;SDS011;52756;52.826;6.214;2022-11-15T07:26:02;43.50;;;28.67;;
54937;SDS011;52756;52.826;6.214;2022-11-15T07:28:28;45.72;;;29.55;;
54937;SDS011;52756;52.826;6.214;2022-11-15T07:30:54;46.10;;;29.30;;
54937;SDS011;52756;52.826;6.214;2022-11-15T07:33:20;45.03;;;28.35;;
54937;SDS011;52756;52.826;6.214;2022-11-15T07:35:45;43.15;;;27.98;;
54937;SDS011;52756;52.826;6.214;2022-11-15T07:38:14;47.30;;;28.73;;
54937;SDS011;52756;52.826;6.214;2022-11-15T07:40:40;44.92;;;27.98;;
54937;SDS011;52756;52.826;6.214;2022-11-15T07:43:07;42.90;;;26.85;;
54937;SDS011;52756;52.826;6.214;2022-11-15T07:45:33;44.10;;;28.42;;
54937;SDS011;52756;52.826;6.214;2022-11-15T07:48:04;44.83;;;27.25;;
54937;SDS011;52756;52.826;6.214;2022-11-15T07:50:30;42.67;;;27.77;;
54937;SDS011;52756;52.826;6.214;2022-11-15T07:52:56;42.85;;;27.50;;
54937;SDS011;52756;52.826;6.214;2022-11-15T07:55:23;44.15;;;28.27;;
54937;SDS011;52756;52.826;6.214;2022-11-15T07:57:50;41.40;;;27.60;;
54937;SDS011;52756;52.826;6.214;2022-11-15T08:00:16;39.08;;;27.90;;
54937;SDS011;52756;52.826;6.214;2022-11-15T08:02:42;37.78;;;25.73;;
54937;SDS011;52756;52.826;6.214;2022-11-15T08:05:08;45.65;;;27.58;;
54937;SDS011;52756;52.826;6.214;2022-11-15T08:07:34;44.45;;;28.33;;
54937;SDS011;52756;52.826;6.214;2022-11-15T08:10:00;37.88;;;25.45;;
54937;SDS011;52756;52.826;6.214;2022-11-15T08:12:29;41.50;;;27.13;;
54937;SDS011;52756;52.826;6.214;2022-11-15T08:14:55;36.67;;;25.50;;
54937;SDS011;52756;52.826;6.214;2022-11-15T08:17:21;38.80;;;26.90;;
54937;SDS011;52756;52.826;6.214;2022-11-15T08:19:48;36.67;;;26.42;;
54937;SDS011;52756;52.826;6.214;2022-11-15T08:22:13;37.90;;;26.33;;
54937;SDS011;52756;52.826;6.214;2022-11-15T08:24:39;35.20;;;24.63;;
54937;SDS011;52756;52.826;6.214;2022-11-15T08:27:05;36.78;;;25.95;;
54937;SDS011;52756;52.826;6.214;2022-11-15T08:29:39;40.50;;;27.05;;
54937;SDS011;52756;52.826;6.214;2022-11-15T08:32:06;36.00;;;25.42;;
54937;SDS011;52756;52.826;6.214;2022-11-15T08:34:32;39.00;;;25.50;;
54937;SDS011;52756;52.826;6.214;2022-11-15T08:36:58;33.35;;;24.67;;
54937;SDS011;52756;52.826;6.214;2022-11-15T08:39:23;36.58;;;26.40;;
54937;SDS011;52756;52.826;6.214;2022-11-15T08:41:49;34.88;;;24.83;;
54937;SDS011;52756;52.826;6.214;2022-11-15T08:44:15;38.53;;;25.98;;
54937;SDS011;52756;52.826;6.214;2022-11-15T08:46:40;34.83;;;25.92;;
54937;SDS011;52756;52.826;6.214;2022-11-15T08:49:06;36.58;;;25.17;;
54937;SDS011;52756;52.826;6.214;2022-11-15T08:51:32;35.65;;;24.92;;
54937;SDS011;52756;52.826;6.214;2022-11-15T08:53:57;35.50;;;24.42;;
54937;SDS011;52756;52.826;6.214;2022-11-15T08:56:23;37.58;;;25.52;;
54937;SDS011;52756;52.826;6.214;2022-11-15T08:58:49;34.20;;;24.27;;
54937;SDS011;52756;52.826;6.214;2022-11-15T09:01:16;37.47;;;24.45;;
54937;SDS011;52756;52.826;6.214;2022-11-15T09:03:44;33.35;;;23.90;;
54937;SDS011;52756;52.826;6.214;2022-11-15T09:06:09;33.17;;;23.55;;
54937;SDS011;52756;52.826;6.214;2022-11-15T09:08:35;36.35;;;25.55;;
54937;SDS011;52756;52.826;6.214;2022-11-15T09:11:07;36.65;;;23.85;;
54937;SDS011;52756;52.826;6.214;2022-11-15T09:13:35;34.40;;;23.40;;
54937;SDS011;52756;52.826;6.214;2022-11-15T09:16:04;35.30;;;24.52;;
54937;SDS011;52756;52.826;6.214;2022-11-15T09:18:31;35.03;;;24.30;;
54937;SDS011;52756;52.826;6.214;2022-11-15T09:20:57;29.25;;;23.40;;
54937;SDS011;52756;52.826;6.214;2022-11-15T09:23:23;30.88;;;23.48;;
54937;SDS011;52756;52.826;6.214;2022-11-15T09:25:50;38.95;;;25.67;;
54937;SDS011;52756;52.826;6.214;2022-11-15T09:28:16;32.38;;;24.20;;
54937;SDS011;52756;52.826;6.214;2022-11-15T09:30:41;36.80;;;24.98;;
54937;SDS011;52756;52.826;6.214;2022-11-15T09:33:11;34.42;;;23.65;;
54937;SDS011;52756;52.826;6.214;2022-11-15T09:35:37;32.78;;;23.35;;
54937;SDS011;52756;52.826;6.214;2022-11-15T09:38:03;29.27;;;21.73;;
54937;SDS011;52756;52.826;6.214;2022-11-15T09:40:32;33.60;;;22.77;;
54937;SDS011;52756;52.826;6.214;2022-11-15T09:46:16;29.23;;;21.10;;
54937;SDS011;52756;52.826;6.214;2022-11-15T09:49:04;29.42;;;21.75;;
54937;SDS011;52756;52.826;6.214;2022-11-15T09:51:39;28.25;;;20.42;;
54937;SDS011;52756;52.826;6.214;2022-11-15T10:04:29;24.60;;;18.33;;
54937;SDS011;52756;52.826;6.214;2022-11-15T10:07:46;25.48;;;19.27;;
54937;SDS011;52756;52.826;6.214;2022-11-15T10:09:57;24.30;;;18.58;;
54937;SDS011;52756;52.826;6.214;2022-11-15T10:12:27;22.75;;;18.20;;
54937;SDS011;52756;52.826;6.214;2022-11-15T10:15:05;22.42;;;17.42;;
54937;SDS011;52756;52.826;6.214;2022-11-15T10:20:28;22.13;;;17.25;;
54937;SDS011;52756;52.826;6.214;2022-11-15T10:23:01;20.00;;;17.17;;
54937;SDS011;52756;52.826;6.214;2022-11-15T10:25:32;20.10;;;16.67;;
54937;SDS011;52756;52.826;6.214;2022-11-15T10:30:46;20.73;;;16.95;;
54937;SDS011;52756;52.826;6.214;2022-11-15T10:35:44;17.48;;;14.98;;
54937;SDS011;52756;52.826;6.214;2022-11-15T10:38:11;20.25;;;16.10;;
54937;SDS011;52756;52.826;6.214;2022-11-15T10:40:38;19.05;;;15.18;;
54937;SDS011;52756;52.826;6.214;2022-11-15T10:43:06;17.10;;;13.30;;
54937;SDS011;52756;52.826;6.214;2022-11-15T10:45:39;19.98;;;14.85;;
54937;SDS011;52756;52.826;6.214;2022-11-15T10:50:37;13.82;;;12.30;;
54937;SDS011;52756;52.826;6.214;2022-11-15T10:53:04;12.63;;;11.25;;
54937;SDS011;52756;52.826;6.214;2022-11-15T10:55:54;14.85;;;10.55;;
54937;SDS011;52756;52.826;6.214;2022-11-15T10:58:33;13.60;;;9.63;;
54937;SDS011;52756;52.826;6.214;2022-11-15T11:01:20;12.55;;;10.00;;
54937;SDS011;52756;52.826;6.214;2022-11-15T11:06:53;12.65;;;9.98;;
54937;SDS011;52756;52.826;6.214;2022-11-15T11:11:58;11.15;;;8.77;;
54937;SDS011;52756;52.826;6.214;2022-11-15T11:14:26;11.65;;;8.15;;
54937;SDS011;52756;52.826;6.214;2022-11-15T11:28:44;7.95;;;6.20;;
54937;SDS011;52756;52.826;6.214;2022-11-15T11:30:57;10.30;;;6.07;;
54937;SDS011;52756;52.826;6.214;2022-11-15T11:36:27;9.45;;;6.35;;
54937;SDS011;52756;52.826;6.214;2022-11-15T11:39:09;9.52;;;5.97;;
54937;SDS011;52756;52.826;6.214;2022-11-15T11:42:13;12.90;;;7.23;;
54937;SDS011;52756;52.826;6.214;2022-11-15T11:47:23;7.70;;;6.03;;
54937;SDS011;52756;52.826;6.214;2022-11-15T12:00:19;5.97;;;4.32;;
54937;SDS011;52756;52.826;6.214;2022-11-15T12:05:42;10.05;;;5.43;;
54937;SDS011;52756;52.826;6.214;2022-11-15T12:14:21;8.27;;;4.80;;
54937;SDS011;52756;52.826;6.214;2022-11-15T12:17:00;6.20;;;4.85;;
54937;SDS011;52756;52.826;6.214;2022-11-15T12:19:26;8.57;;;4.75;;
54937;SDS011;52756;52.826;6.214;2022-11-15T12:24:43;7.82;;;3.75;;
54937;SDS011;52756;52.826;6.214;2022-11-15T12:27:18;6.32;;;4.35;;
54937;SDS011;52756;52.826;6.214;2022-11-15T12:30:04;6.00;;;4.18;;
54937;SDS011;52756;52.826;6.214;2022-11-15T12:36:00;5.72;;;3.83;;
54937;SDS011;52756;52.826;6.214;2022-11-15T13:05:24;5.13;;;2.63;;
54937;SDS011;52756;52.826;6.214;2022-11-15T13:17:51;4.93;;;2.08;;
54937;SDS011;52756;52.826;6.214;2022-11-15T13:20:31;5.55;;;2.10;;
54937;SDS011;52756;52.826;6.214;2022-11-15T13:28:17;4.65;;;2.13;;
54937;SDS011;52756;52.826;6.214;2022-11-15T13:35:57;3.60;;;2.05;;
54937;SDS011;52756;52.826;6.214;2022-11-15T13:38:30;3.65;;;1.90;;
54937;SDS011;52756;52.826;6.214;2022-11-15T13:40:58;6.53;;;2.10;;
54937;SDS011;52756;52.826;6.214;2022-11-15T13:49:12;6.97;;;2.30;;
54937;SDS011;52756;52.826;6.214;2022-11-15T13:51:46;5.55;;;1.85;;
54937;SDS011;52756;52.826;6.214;2022-11-15T13:57:09;3.72;;;2.00;;
54937;SDS011;52756;52.826;6.214;2022-11-15T13:59:56;2.78;;;1.63;;
54937;SDS011;52756;52.826;6.214;2022-11-15T14:02:27;2.85;;;1.50;;
54937;SDS011;52756;52.826;6.214;2022-11-15T14:05:03;2.17;;;1.58;;
54937;SDS011;52756;52.826;6.214;2022-11-15T14:10:31;3.30;;;1.67;;
54937;SDS011;52756;52.826;6.214;2022-11-15T14:12:58;3.13;;;1.20;;
54937;SDS011;52756;52.826;6.214;2022-11-15T14:17:56;3.92;;;1.30;;
54937;SDS011;52756;52.826;6.214;2022-11-15T14:22:54;4.60;;;1.48;;
54937;SDS011;52756;52.826;6.214;2022-11-15T14:25:25;2.97;;;1.40;;
54937;SDS011;52756;52.826;6.214;2022-11-15T14:28:08;3.35;;;1.42;;
54937;SDS011;52756;52.826;6.214;2022-11-15T14:30:33;2.47;;;1.00;;
54937;SDS011;52756;52.826;6.214;2022-11-15T14:32:59;6.45;;;1.35;;
54937;SDS011;52756;52.826;6.214;2022-11-15T14:35:25;3.47;;;1.15;;
54937;SDS011;52756;52.826;6.214;2022-11-15T14:37:51;3.10;;;1.38;;
54937;SDS011;52756;52.826;6.214;2022-11-15T14:40:17;4.43;;;1.02;;
54937;SDS011;52756;52.826;6.214;2022-11-15T14:42:44;2.85;;;1.02;;
54937;SDS011;52756;52.826;6.214;2022-11-15T14:45:13;2.90;;;1.05;;
54937;SDS011;52756;52.826;6.214;2022-11-15T14:47:46;4.28;;;1.30;;
54937;SDS011;52756;52.826;6.214;2022-11-15T14:50:13;3.17;;;1.00;;
54937;SDS011;52756;52.826;6.214;2022-11-15T14:52:39;5.95;;;1.45;;
54937;SDS011;52756;52.826;6.214;2022-11-15T14:55:24;3.00;;;1.20;;
54937;SDS011;52756;52.826;6.214;2022-11-15T14:57:56;3.38;;;1.42;;
54937;SDS011;52756;52.826;6.214;2022-11-15T15:00:21;1.92;;;0.85;;
54937;SDS011;52756;52.826;6.214;2022-11-15T15:02:48;3.55;;;1.27;;
54937;SDS011;52756;52.826;6.214;2022-11-15T15:05:16;3.60;;;1.52;;
54937;SDS011;52756;52.826;6.214;2022-11-15T15:07:44;4.15;;;1.40;;
54937;SDS011;52756;52.826;6.214;2022-11-15T15:10:10;3.22;;;1.48;;
54937;SDS011;52756;52.826;6.214;2022-11-15T15:12:37;2.83;;;1.30;;
54937;SDS011;52756;52.826;6.214;2022-11-15T15:15:02;4.10;;;1.50;;
54937;SDS011;52756;52.826;6.214;2022-11-15T15:17:28;2.72;;;1.45;;
54937;SDS011;52756;52.826;6.214;2022-11-15T15:19:54;3.05;;;1.70;;
54937;SDS011;52756;52.826;6.214;2022-11-15T15:22:20;3.03;;;1.70;;
54937;SDS011;52756;52.826;6.214;2022-11-15T15:24:50;4.18;;;2.38;;
54937;SDS011;52756;52.826;6.214;2022-11-15T15:27:16;3.58;;;2.28;;
54937;SDS011;52756;52.826;6.214;2022-11-15T15:29:42;5.97;;;2.70;;
54937;SDS011;52756;52.826;6.214;2022-11-15T15:32:08;4.13;;;2.72;;
54937;SDS011;52756;52.826;6.214;2022-11-15T15:34:35;4.38;;;2.45;;
54937;SDS011;52756;52.826;6.214;2022-11-15T15:37:33;5.47;;;2.25;;
54937;SDS011;52756;52.826;6.214;2022-11-15T15:39:53;5.68;;;3.08;;
54937;SDS011;52756;52.826;6.214;2022-11-15T15:42:21;9.13;;;3.30;;
54937;SDS011;52756;52.826;6.214;2022-11-15T15:44:47;5.57;;;3.00;;
54937;SDS011;52756;52.826;6.214;2022-11-15T15:47:21;5.20;;;3.25;;
54937;SDS011;52756;52.826;6.214;2022-11-15T15:49:47;6.90;;;4.10;;
54937;SDS011;52756;52.826;6.214;2022-11-15T15:52:14;6.95;;;3.97;;
54937;SDS011;52756;52.826;6.214;2022-11-15T15:54:40;6.35;;;3.72;;
54937;SDS011;52756;52.826;6.214;2022-11-15T15:57:06;7.22;;;4.35;;
54937;SDS011;52756;52.826;6.214;2022-11-15T15:59:33;6.38;;;3.80;;
54937;SDS011;52756;52.826;6.214;2022-11-15T16:01:59;5.32;;;4.20;;
54937;SDS011;52756;52.826;6.214;2022-11-15T16:04:24;7.30;;;4.53;;
54937;SDS011;52756;52.826;6.214;2022-11-15T16:06:51;6.78;;;4.15;;
54937;SDS011;52756;52.826;6.214;2022-11-15T16:09:19;8.07;;;4.60;;
54937;SDS011;52756;52.826;6.214;2022-11-15T16:12:08;5.47;;;4.72;;
54937;SDS011;52756;52.826;6.214;2022-11-15T16:14:33;7.47;;;5.28;;
54937;SDS011;52756;52.826;6.214;2022-11-15T16:16:59;8.27;;;4.20;;
54937;SDS011;52756;52.826;6.214;2022-11-15T16:19:25;6.45;;;4.18;;
54937;SDS011;52756;52.826;6.214;2022-11-15T16:21:50;6.30;;;3.75;;
54937;SDS011;52756;52.826;6.214;2022-11-15T16:24:19;5.07;;;3.30;;
54937;SDS011;52756;52.826;6.214;2022-11-15T16:26:46;5.50;;;3.58;;
54937;SDS011;52756;52.826;6.214;2022-11-15T16:29:13;6.25;;;3.10;;
54937;SDS011;52756;52.826;6.214;2022-11-15T16:31:39;5.72;;;2.72;;
54937;SDS011;52756;52.826;6.214;2022-11-15T16:34:04;5.93;;;3.20;;
54937;SDS011;52756;52.826;6.214;2022-11-15T16:36:32;6.10;;;3.03;;
54937;SDS011;52756;52.826;6.214;2022-11-15T16:38:59;5.85;;;2.65;;
54937;SDS011;52756;52.826;6.214;2022-11-15T16:41:28;4.07;;;2.28;;
54937;SDS011;52756;52.826;6.214;2022-11-15T16:43:54;4.10;;;2.33;;
54937;SDS011;52756;52.826;6.214;2022-11-15T16:46:22;4.75;;;2.13;;
54937;SDS011;52756;52.826;6.214;2022-11-15T16:48:50;4.55;;;2.00;;
54937;SDS011;52756;52.826;6.214;2022-11-15T16:51:16;6.80;;;2.63;;
54937;SDS011;52756;52.826;6.214;2022-11-15T16:53:42;4.25;;;1.80;;
54937;SDS011;52756;52.826;6.214;2022-11-15T16:56:17;4.88;;;1.70;;
54937;SDS011;52756;52.826;6.214;2022-11-15T16:58:46;5.20;;;1.40;;
54937;SDS011;52756;52.826;6.214;2022-11-15T17:01:16;4.15;;;1.48;;
54937;SDS011;52756;52.826;6.214;2022-11-15T17:03:49;3.80;;;1.83;;
54937;SDS011;52756;52.826;6.214;2022-11-15T17:06:15;8.25;;;2.05;;
54937;SDS011;52756;52.826;6.214;2022-11-15T17:08:42;2.95;;;1.23;;
54937;SDS011;52756;52.826;6.214;2022-11-15T17:11:10;4.32;;;1.45;;
54937;SDS011;52756;52.826;6.214;2022-11-15T17:13:42;2.50;;;1.27;;
54937;SDS011;52756;52.826;6.214;2022-11-15T17:16:09;4.05;;;1.55;;
54937;SDS011;52756;52.826;6.214;2022-11-15T17:18:36;3.45;;;1.30;;
54937;SDS011;52756;52.826;6.214;2022-11-15T17:21:06;4.45;;;2.08;;
54937;SDS011;52756;52.826;6.214;2022-11-15T17:23:34;3.28;;;1.30;;
54937;SDS011;52756;52.826;6.214;2022-11-15T17:26:00;3.38;;;1.20;;
54937;SDS011;52756;52.826;6.214;2022-11-15T17:28:28;3.13;;;1.40;;
54937;SDS011;52756;52.826;6.214;2022-11-15T17:30:54;3.47;;;1.60;;
54937;SDS011;52756;52.826;6.214;2022-11-15T17:33:20;3.60;;;1.40;;
54937;SDS011;52756;52.826;6.214;2022-11-15T17:35:45;7.38;;;1.83;;
54937;SDS011;52756;52.826;6.214;2022-11-15T17:38:11;2.90;;;1.35;;